createdAt,value
2017-06-14T00:01:29.562Z,4.57
2017-06-14T00:03:57.118Z,4.30
2017-06-14T00:06:24.688Z,4.30
2017-06-14T00:08:52.227Z,4.40
2017-06-14T00:11:19.772Z,4.97
2017-06-14T00:13:47.344Z,4.90
2017-06-14T00:16:14.879Z,5.30
2017-06-14T00:18:42.422Z,4.47
2017-06-14T00:21:10.756Z,5.00
2017-06-14T00:23:38.625Z,4.93
2017-06-14T00:26:06.165Z,4.70
2017-06-14T00:28:33.740Z,5.20
2017-06-14T00:31:01.292Z,4.90
2017-06-14T00:33:28.841Z,4.70
2017-06-14T00:35:56.403Z,4.77
2017-06-14T00:38:23.941Z,5.30
2017-06-14T00:40:51.515Z,4.77
2017-06-14T00:43:19.061Z,5.60
2017-06-14T00:45:46.655Z,4.90
2017-06-14T00:48:14.519Z,5.50
2017-06-14T00:50:42.090Z,5.50
2017-06-14T00:53:09.624Z,5.67
2017-06-14T00:55:37.166Z,4.83
2017-06-14T00:58:04.758Z,5.67
2017-06-14T01:00:32.293Z,5.87
2017-06-14T01:02:59.824Z,5.30
2017-06-14T01:05:28.154Z,5.23
2017-06-14T01:07:55.694Z,5.73
2017-06-14T01:10:23.248Z,5.47
2017-06-14T01:12:50.777Z,5.57
2017-06-14T01:15:19.344Z,5.80
2017-06-14T01:17:47.642Z,6.13
2017-06-14T01:20:15.222Z,6.17
2017-06-14T01:22:43.050Z,6.10
2017-06-14T01:25:11.379Z,5.97
2017-06-14T01:27:39.039Z,5.57
2017-06-14T01:30:06.573Z,5.23
2017-06-14T01:32:34.108Z,6.87
2017-06-14T01:35:02.453Z,6.37
2017-06-14T01:37:30.013Z,6.77
2017-06-14T01:39:57.566Z,6.40
2017-06-14T01:42:25.119Z,6.60
2017-06-14T01:44:52.683Z,6.07
2017-06-14T01:47:20.231Z,6.17
2017-06-14T01:49:47.794Z,6.77
2017-06-14T01:52:15.322Z,6.80
2017-06-14T01:54:42.859Z,6.20
2017-06-14T01:57:11.278Z,6.27
2017-06-14T01:59:38.807Z,6.87
2017-06-14T02:02:07.106Z,5.90
2017-06-14T02:04:34.670Z,7.17
2017-06-14T02:07:02.198Z,6.10
2017-06-14T02:09:30.513Z,7.10
2017-06-14T02:11:58.088Z,6.30
2017-06-14T02:14:25.637Z,7.10
2017-06-14T02:16:53.193Z,7.47
2017-06-14T02:19:20.753Z,8.10
2017-06-14T02:21:48.298Z,7.20
2017-06-14T02:24:15.832Z,8.10
2017-06-14T02:26:44.162Z,7.90
2017-06-14T02:29:11.701Z,7.70
2017-06-14T02:31:39.241Z,8.47
2017-06-14T02:34:06.855Z,8.03
2017-06-14T02:36:34.395Z,8.73
2017-06-14T02:39:01.934Z,9.30
2017-06-14T02:41:29.499Z,9.00
2017-06-14T02:43:57.031Z,8.40
2017-06-14T02:46:24.582Z,9.30
2017-06-14T02:48:52.919Z,9.10
2017-06-14T02:51:20.458Z,9.03
2017-06-14T02:53:48.017Z,8.17
2017-06-14T02:56:15.586Z,10.07
2017-06-14T02:58:43.122Z,9.17
2017-06-14T03:01:10.670Z,9.47
2017-06-14T03:03:38.234Z,8.70
2017-06-14T03:06:05.771Z,9.80
2017-06-14T03:08:34.108Z,9.90
2017-06-14T03:11:01.776Z,9.43
2017-06-14T03:13:29.318Z,9.30
2017-06-14T03:15:56.858Z,9.40
2017-06-14T03:18:24.409Z,9.10
2017-06-14T03:20:57.722Z,9.43
2017-06-14T03:23:25.286Z,9.53
2017-06-14T03:25:52.826Z,9.77
2017-06-14T03:28:20.379Z,10.00
2017-06-14T03:30:47.978Z,10.03
2017-06-14T03:33:15.534Z,10.50
2017-06-14T03:35:43.182Z,10.30
2017-06-14T03:38:10.751Z,9.77
2017-06-14T03:40:38.307Z,9.50
2017-06-14T03:43:05.847Z,9.57
2017-06-14T03:45:33.409Z,9.60
2017-06-14T03:48:00.959Z,10.20
2017-06-14T03:50:28.507Z,9.77
2017-06-14T03:52:56.070Z,10.27
2017-06-14T03:55:23.611Z,9.93
2017-06-14T03:57:51.925Z,9.13
2017-06-14T04:00:19.539Z,9.43
2017-06-14T04:02:47.071Z,9.50
2017-06-14T04:05:14.603Z,10.67
2017-06-14T04:07:42.152Z,9.77
2017-06-14T04:10:09.698Z,9.30
2017-06-14T04:12:37.274Z,12.33
2017-06-14T04:15:05.057Z,10.10
2017-06-14T04:17:32.586Z,9.83
2017-06-14T04:20:00.182Z,9.50
2017-06-14T04:22:27.742Z,10.07
2017-06-14T04:24:55.278Z,10.17
2017-06-14T04:27:22.844Z,9.33
2017-06-14T04:29:50.387Z,10.33
2017-06-14T04:32:17.982Z,9.43
2017-06-14T04:34:45.556Z,9.53
2017-06-14T04:37:13.101Z,9.20
2017-06-14T04:39:40.649Z,9.90
2017-06-14T04:42:08.210Z,8.93
2017-06-14T04:44:35.763Z,8.80
2017-06-14T04:47:03.333Z,9.40
2017-06-14T04:49:30.909Z,8.80
2017-06-14T04:51:58.451Z,9.20
2017-06-14T04:54:26.018Z,8.63
2017-06-14T04:56:53.684Z,9.90
2017-06-14T04:59:21.325Z,9.17
2017-06-14T05:01:48.894Z,8.57
2017-06-14T05:04:16.431Z,8.53
2017-06-14T05:06:44.015Z,8.90
2017-06-14T05:09:11.585Z,9.30
2017-06-14T05:11:39.131Z,9.20
2017-06-14T05:14:06.680Z,8.57
2017-06-14T05:16:34.250Z,8.40
2017-06-14T05:19:01.832Z,9.00
2017-06-14T05:21:29.372Z,8.90
2017-06-14T05:23:56.960Z,8.30
2017-06-14T05:26:24.882Z,8.30
2017-06-14T05:28:52.432Z,8.17
2017-06-14T05:31:20.006Z,8.30
2017-06-14T05:33:47.611Z,7.57
2017-06-14T05:36:15.327Z,7.40
2017-06-14T05:38:42.865Z,7.60
2017-06-14T05:41:10.461Z,7.80
2017-06-14T05:43:38.037Z,7.20
2017-06-14T05:46:05.574Z,8.20
2017-06-14T05:48:33.107Z,7.90
2017-06-14T05:51:00.679Z,6.80
2017-06-14T05:53:28.241Z,7.30
2017-06-14T05:55:55.769Z,7.00
2017-06-14T05:58:24.097Z,6.90
2017-06-14T06:00:51.659Z,7.20
2017-06-14T06:03:19.201Z,7.40
2017-06-14T06:05:46.722Z,7.53
2017-06-14T06:08:15.050Z,6.43
2017-06-14T06:10:42.598Z,6.67
2017-06-14T06:13:10.130Z,6.17
2017-06-14T06:15:37.722Z,7.10
2017-06-14T06:18:05.374Z,6.33
2017-06-14T06:20:32.920Z,6.77
2017-06-14T06:23:00.502Z,6.60
2017-06-14T06:25:28.050Z,6.40
2017-06-14T06:27:55.594Z,7.03
2017-06-14T06:30:23.152Z,6.30
2017-06-14T06:32:50.694Z,7.13
2017-06-14T06:35:18.992Z,7.03
2017-06-14T06:37:46.736Z,6.47
2017-06-14T06:40:14.304Z,6.83
2017-06-14T06:42:41.844Z,6.30
2017-06-14T06:45:10.149Z,6.03
2017-06-14T06:47:37.709Z,7.20
2017-06-14T06:50:05.254Z,6.43
2017-06-14T06:52:32.821Z,6.67
2017-06-14T06:55:00.359Z,6.70
2017-06-14T06:57:28.692Z,6.70
2017-06-14T06:59:56.252Z,6.73
2017-06-14T07:02:23.787Z,6.33
2017-06-14T07:04:51.354Z,7.03
2017-06-14T07:07:18.899Z,6.23
2017-06-14T07:09:46.433Z,6.33
2017-06-14T07:12:14.774Z,6.70
2017-06-14T07:14:42.298Z,6.90
2017-06-14T07:17:09.836Z,6.40
2017-06-14T07:19:37.446Z,6.23
2017-06-14T07:22:04.979Z,6.53
2017-06-14T07:24:32.522Z,6.70
2017-06-14T07:27:00.084Z,6.90
2017-06-14T07:29:28.535Z,6.07
2017-06-14T07:31:56.838Z,6.13
2017-06-14T07:34:24.406Z,5.70
2017-06-14T07:36:51.959Z,5.33
2017-06-14T07:39:19.528Z,5.90
2017-06-14T07:41:47.046Z,5.53
2017-06-14T07:44:15.391Z,4.73
2017-06-14T07:46:42.944Z,5.37
2017-06-14T07:49:10.478Z,5.93
2017-06-14T07:51:38.098Z,6.00
2017-06-14T07:54:05.635Z,4.90
2017-06-14T07:56:33.197Z,5.10
2017-06-14T07:59:00.772Z,4.73
2017-06-14T08:01:28.305Z,4.67
2017-06-14T08:03:55.839Z,5.60
2017-06-14T08:06:23.415Z,6.27
2017-06-14T08:08:50.953Z,6.13
2017-06-14T08:11:18.487Z,5.53
2017-06-14T08:13:46.807Z,4.60
2017-06-14T08:16:14.346Z,5.23
2017-06-14T08:18:41.903Z,5.17
2017-06-14T08:21:09.432Z,5.23
2017-06-14T08:23:37.761Z,4.47
2017-06-14T08:26:05.327Z,5.47
2017-06-14T08:28:32.865Z,5.87
2017-06-14T08:31:00.390Z,6.17
2017-06-14T08:33:28.725Z,5.53
2017-06-14T08:35:56.266Z,6.40
2017-06-14T08:38:23.806Z,5.77
2017-06-14T08:40:51.375Z,6.00
2017-06-14T08:43:18.910Z,5.30
2017-06-14T08:45:47.210Z,5.53
2017-06-14T08:48:14.801Z,6.20
2017-06-14T08:50:42.336Z,6.33
2017-06-14T08:53:09.876Z,7.03
2017-06-14T08:55:37.442Z,5.70
2017-06-14T08:58:04.983Z,5.73
2017-06-14T09:00:33.301Z,5.97
2017-06-14T09:03:00.861Z,6.57
2017-06-14T09:05:28.436Z,6.13
2017-06-14T09:07:55.969Z,6.70
2017-06-14T09:10:23.539Z,6.93
2017-06-14T09:12:51.117Z,8.40
2017-06-14T09:15:18.649Z,7.07
2017-06-14T09:17:46.182Z,6.60
2017-06-14T09:20:14.518Z,7.40
2017-06-14T09:22:42.053Z,7.10
2017-06-14T09:25:09.625Z,5.83
2017-06-14T09:27:37.195Z,6.50
2017-06-14T09:30:04.729Z,5.87
2017-06-14T09:32:32.258Z,6.67
2017-06-14T09:35:00.584Z,7.60
2017-06-14T09:37:28.111Z,6.50
2017-06-14T09:39:55.698Z,7.60
2017-06-14T09:42:23.260Z,6.57
2017-06-14T09:44:50.801Z,6.50
2017-06-14T09:47:18.337Z,7.37
2017-06-14T09:49:45.937Z,5.97
2017-06-14T09:52:13.467Z,5.50
2017-06-14T09:54:41.057Z,6.40
2017-06-14T09:57:08.621Z,7.20
2017-06-14T09:59:36.158Z,6.40
2017-06-14T10:02:03.719Z,5.73
2017-06-14T10:04:31.254Z,5.70
2017-06-14T10:06:58.799Z,5.87
2017-06-14T10:09:27.231Z,6.10
2017-06-14T10:11:54.777Z,6.47
2017-06-14T10:14:22.343Z,6.13
2017-06-14T10:16:49.911Z,5.87
2017-06-14T10:19:17.459Z,13.87
2017-06-14T10:21:44.988Z,6.43
2017-06-14T10:24:12.790Z,6.03
2017-06-14T10:26:40.366Z,5.77
2017-06-14T10:29:07.900Z,5.50
2017-06-14T10:31:35.447Z,6.43
2017-06-14T10:34:03.026Z,6.23
2017-06-14T10:36:30.554Z,5.43
2017-06-14T10:38:58.088Z,4.73
2017-06-14T10:41:26.430Z,5.40
2017-06-14T10:43:53.954Z,4.90
2017-06-14T10:46:21.542Z,4.90
2017-06-14T10:48:49.108Z,4.83
2017-06-14T10:51:16.655Z,4.70
2017-06-14T10:53:44.185Z,4.50
2017-06-14T10:56:11.741Z,4.77
2017-06-14T10:58:39.275Z,4.07
2017-06-14T11:01:07.619Z,4.50
2017-06-14T11:03:35.154Z,4.83
2017-06-14T11:06:02.691Z,4.53
2017-06-14T11:08:30.285Z,4.90
2017-06-14T11:10:57.855Z,5.37
2017-06-14T11:13:25.386Z,4.60
2017-06-14T11:15:52.973Z,5.10
2017-06-14T11:18:20.503Z,4.20
2017-06-14T11:20:48.087Z,4.40
2017-06-14T11:23:15.656Z,7.00
2017-06-14T11:25:43.198Z,4.57
2017-06-14T11:28:10.750Z,4.10
2017-06-14T11:30:38.353Z,4.17
2017-06-14T11:33:06.332Z,3.80
2017-06-14T11:35:33.872Z,4.30
2017-06-14T11:38:01.439Z,4.77
2017-06-14T11:40:28.984Z,4.30
2017-06-14T11:42:56.520Z,3.13
2017-06-14T11:45:24.085Z,3.07
2017-06-14T11:47:51.625Z,3.63
2017-06-14T11:50:19.154Z,3.20
2017-06-14T11:52:47.497Z,3.60
2017-06-14T11:55:15.033Z,3.40
2017-06-14T11:57:42.574Z,3.20
2017-06-14T12:00:10.144Z,3.10
2017-06-14T12:02:37.697Z,3.40
2017-06-14T12:05:05.245Z,3.47
2017-06-14T12:07:33.157Z,3.23
2017-06-14T12:10:00.727Z,3.10
2017-06-14T12:12:28.275Z,3.20
2017-06-14T12:14:55.875Z,2.90
2017-06-14T12:17:24.207Z,2.67
2017-06-14T12:19:51.779Z,3.17
2017-06-14T12:22:19.395Z,5.37
2017-06-14T12:24:46.983Z,4.28
2017-06-14T12:27:14.563Z,2.65
2017-06-14T12:29:42.144Z,3.20
2017-06-14T12:32:10.486Z,2.80
2017-06-14T12:34:38.037Z,3.37
2017-06-14T12:37:05.614Z,3.00
2017-06-14T12:39:33.170Z,3.08
2017-06-14T12:42:00.720Z,3.08
2017-06-14T12:44:28.292Z,3.45
2017-06-14T12:46:55.832Z,3.10
2017-06-14T12:49:23.468Z,3.00
2017-06-14T12:51:51.153Z,2.90
2017-06-14T12:54:18.707Z,3.35
2017-06-14T12:56:46.256Z,2.83
2017-06-14T12:59:13.851Z,2.90
2017-06-14T13:01:41.404Z,3.25
2017-06-14T13:04:08.979Z,3.70
2017-06-14T13:06:36.533Z,2.60
2017-06-14T13:09:04.112Z,3.10
2017-06-14T13:11:31.672Z,2.83
2017-06-14T13:13:59.221Z,2.42
2017-06-14T13:16:26.796Z,3.20
2017-06-14T13:18:55.127Z,2.92
2017-06-14T13:21:22.664Z,2.92
2017-06-14T13:23:50.239Z,3.53
2017-06-14T13:26:17.791Z,3.12
2017-06-14T13:28:45.367Z,2.80
2017-06-14T13:31:12.920Z,4.47
2017-06-14T13:33:40.458Z,3.58
2017-06-14T13:36:08.042Z,3.37
2017-06-14T13:38:35.579Z,3.80
2017-06-14T13:41:03.110Z,3.10
2017-06-14T13:43:31.446Z,2.90
2017-06-14T13:45:58.982Z,3.53
2017-06-14T13:48:26.514Z,2.87
2017-06-14T13:50:54.842Z,2.92
2017-06-14T13:53:22.374Z,2.77
2017-06-14T13:55:49.962Z,3.40
2017-06-14T13:58:17.524Z,3.17
2017-06-14T14:00:45.082Z,3.08
2017-06-14T14:03:12.654Z,3.37
2017-06-14T14:05:40.198Z,3.10
2017-06-14T14:08:07.750Z,3.10
2017-06-14T14:10:35.283Z,2.90
2017-06-14T14:13:02.820Z,2.97
2017-06-14T14:15:30.399Z,3.25
2017-06-14T14:17:57.953Z,2.90
2017-06-14T14:20:25.485Z,3.22
2017-06-14T14:22:53.117Z,3.40
2017-06-14T14:25:20.647Z,3.22
2017-06-14T14:27:48.194Z,2.83
2017-06-14T14:30:15.777Z,3.05
2017-06-14T14:32:43.351Z,3.15
2017-06-14T14:35:10.892Z,2.95
2017-06-14T14:37:38.498Z,2.92
2017-06-14T14:40:06.026Z,3.05
2017-06-14T14:42:33.562Z,3.37
2017-06-14T14:45:01.133Z,2.60
2017-06-14T14:47:28.728Z,3.05
2017-06-14T14:49:56.306Z,3.00
2017-06-14T14:52:24.618Z,3.20
2017-06-14T14:54:52.146Z,2.55
2017-06-14T14:57:20.484Z,2.80
2017-06-14T14:59:48.020Z,2.80
2017-06-14T15:02:15.546Z,3.20
2017-06-14T15:04:43.877Z,2.55
2017-06-14T15:07:11.413Z,2.78
2017-06-14T15:09:38.991Z,3.10
2017-06-14T15:12:06.517Z,2.92
2017-06-14T15:14:34.878Z,3.00
2017-06-14T15:17:02.819Z,2.92
2017-06-14T15:19:30.359Z,2.97
2017-06-14T15:21:57.902Z,3.62
2017-06-14T15:24:25.457Z,3.58
2017-06-14T15:26:53.004Z,3.30
2017-06-14T15:29:20.543Z,3.53
2017-06-14T15:31:48.107Z,3.20
2017-06-14T15:34:15.685Z,3.80
2017-06-14T15:36:43.232Z,3.50
2017-06-14T15:39:10.804Z,3.40
2017-06-14T15:41:38.363Z,3.62
2017-06-14T15:44:05.926Z,4.33
2017-06-14T15:46:33.503Z,3.60
2017-06-14T15:49:01.292Z,3.63
2017-06-14T15:51:29.618Z,3.73
2017-06-14T15:53:57.186Z,3.40
2017-06-14T15:56:24.744Z,3.80
2017-06-14T15:58:52.315Z,3.43
2017-06-14T16:01:19.883Z,3.83
2017-06-14T16:03:47.428Z,3.50
2017-06-14T16:06:15.006Z,6.43
2017-06-14T16:08:43.362Z,4.87
2017-06-14T16:11:10.920Z,4.00
2017-06-14T16:13:38.478Z,3.77
2017-06-14T16:16:06.059Z,4.20
2017-06-14T16:18:33.596Z,4.00
2017-06-14T16:21:01.147Z,3.17
2017-06-14T16:23:28.763Z,3.10
2017-06-14T16:25:56.317Z,3.50
2017-06-14T16:28:24.635Z,3.30
2017-06-14T16:30:52.209Z,3.17
2017-06-14T16:33:19.854Z,12.67
2017-06-14T16:35:47.397Z,8.20
2017-06-14T16:38:15.072Z,3.77
2017-06-14T16:40:42.609Z,3.73
2017-06-14T16:43:10.142Z,3.60
2017-06-14T16:45:38.472Z,4.20
2017-06-14T16:48:06.050Z,4.30
2017-06-14T16:50:33.580Z,3.90
2017-06-14T16:53:01.158Z,4.20
2017-06-14T16:55:28.693Z,4.13
2017-06-14T16:57:56.234Z,4.30
2017-06-14T17:00:23.794Z,4.37
2017-06-14T17:02:51.318Z,4.67
2017-06-14T17:05:18.932Z,4.80
2017-06-14T17:07:46.489Z,6.90
2017-06-14T17:10:14.016Z,5.50
2017-06-14T17:12:41.559Z,6.07
2017-06-14T17:15:09.892Z,8.27
2017-06-14T17:17:37.429Z,4.70
2017-06-14T17:20:04.976Z,6.00
2017-06-14T17:22:32.555Z,5.47
2017-06-14T17:25:00.119Z,5.40
2017-06-14T17:27:27.653Z,4.57
2017-06-14T17:29:55.210Z,5.37
2017-06-14T17:32:22.773Z,12.23
2017-06-14T17:34:50.367Z,12.47
2017-06-14T17:37:17.905Z,5.10
2017-06-14T17:39:45.451Z,5.13
2017-06-14T17:42:13.023Z,4.33
2017-06-14T17:44:40.563Z,5.07
2017-06-14T17:47:08.154Z,4.63
2017-06-14T17:49:35.718Z,3.80
2017-06-14T17:52:03.278Z,4.13
2017-06-14T17:54:30.815Z,5.17
2017-06-14T17:56:58.396Z,4.50
2017-06-14T17:59:26.034Z,13.50
2017-06-14T18:01:53.596Z,11.70
2017-06-14T18:04:21.178Z,7.20
2017-06-14T18:06:48.716Z,5.60
2017-06-14T18:09:16.254Z,4.10
2017-06-14T18:11:43.838Z,19.53
2017-06-14T18:14:11.390Z,7.53
2017-06-14T18:16:38.928Z,5.90
2017-06-14T18:19:06.517Z,5.70
2017-06-14T18:21:34.156Z,6.00
2017-06-14T18:24:01.695Z,5.90
2017-06-14T18:26:29.635Z,5.00
2017-06-14T18:28:57.177Z,5.50
2017-06-14T18:31:24.715Z,6.30
2017-06-14T18:33:52.303Z,6.77
2017-06-14T18:36:19.841Z,6.80
2017-06-14T18:38:47.493Z,9.40
2017-06-14T18:41:15.063Z,5.17
2017-06-14T18:43:42.601Z,7.03
2017-06-14T18:46:10.207Z,5.60
2017-06-14T18:48:37.773Z,5.63
2017-06-14T18:51:05.326Z,5.30
2017-06-14T18:53:32.858Z,6.00
2017-06-14T18:56:00.431Z,23.20
2017-06-14T18:58:27.974Z,7.50
2017-06-14T19:00:55.510Z,5.50
2017-06-14T19:03:23.116Z,8.77
2017-06-14T19:05:50.689Z,6.13
2017-06-14T19:08:18.272Z,5.60
2017-06-14T19:10:45.809Z,6.27
2017-06-14T19:13:14.134Z,7.37
2017-06-14T19:15:41.719Z,6.20
2017-06-14T19:18:09.410Z,8.10
2017-06-14T19:20:37.768Z,7.57
2017-06-14T19:23:05.319Z,6.87
2017-06-14T19:25:38.537Z,7.27
2017-06-14T19:28:07.181Z,7.30
2017-06-14T19:30:41.482Z,8.10
2017-06-14T19:33:09.055Z,7.97
2017-06-14T19:35:36.639Z,13.00
2017-06-14T19:38:04.229Z,9.67
2017-06-14T19:40:32.071Z,7.70
2017-06-14T19:43:00.391Z,7.23
2017-06-14T19:45:28.062Z,7.43
2017-06-14T19:47:55.657Z,8.50
2017-06-14T19:50:23.196Z,8.30
2017-06-14T19:52:50.765Z,8.43
2017-06-14T19:55:18.324Z,8.50
2017-06-14T19:57:45.882Z,8.10
2017-06-14T20:00:13.451Z,9.20
2017-06-14T20:02:40.986Z,7.37
2017-06-14T20:05:08.530Z,8.30
2017-06-14T20:07:36.100Z,8.00
2017-06-14T20:10:03.646Z,8.90
2017-06-14T20:12:31.196Z,8.10
2017-06-14T20:14:58.818Z,12.70
2017-06-14T20:17:27.144Z,28.20
2017-06-14T20:19:54.711Z,14.63
2017-06-14T20:22:22.318Z,10.77
2017-06-14T20:24:50.686Z,10.20
2017-06-14T20:27:18.230Z,10.90
2017-06-14T20:29:45.804Z,17.23
2017-06-14T20:32:14.152Z,14.70
2017-06-14T20:34:41.721Z,13.80
2017-06-14T20:37:09.333Z,13.27
2017-06-14T20:39:36.880Z,10.63
2017-06-14T20:42:04.448Z,11.90
2017-06-14T20:44:32.036Z,11.90
2017-06-14T20:46:59.623Z,10.30
2017-06-14T20:49:27.177Z,20.23
2017-06-14T20:51:54.833Z,20.60
2017-06-14T20:54:22.387Z,13.80
2017-06-14T20:56:49.949Z,11.80
2017-06-14T20:59:17.534Z,12.33
2017-06-14T21:01:45.900Z,17.67
2017-06-14T21:04:13.462Z,15.33
2017-06-14T21:06:41.013Z,11.20
2017-06-14T21:09:08.589Z,10.20
2017-06-14T21:11:36.916Z,10.57
2017-06-14T21:14:04.498Z,20.97
2017-06-14T21:16:32.048Z,14.47
2017-06-14T21:18:59.598Z,10.77
2017-06-14T21:21:27.154Z,9.57
2017-06-14T21:23:54.714Z,10.30
2017-06-14T21:26:22.299Z,9.60
2017-06-14T21:28:49.858Z,10.20
2017-06-14T21:31:17.390Z,9.97
2017-06-14T21:33:44.972Z,9.93
2017-06-14T21:36:12.515Z,10.53
2017-06-14T21:38:40.055Z,9.53
2017-06-14T21:41:07.729Z,10.90
2017-06-14T21:43:35.279Z,10.30
2017-06-14T21:46:02.835Z,10.37
2017-06-14T21:48:30.407Z,10.73
2017-06-14T21:50:57.981Z,11.23
2017-06-14T21:53:25.519Z,10.73
2017-06-14T21:55:53.067Z,11.30
2017-06-14T21:58:20.859Z,11.10
2017-06-14T22:00:48.417Z,11.23
2017-06-14T22:03:21.846Z,11.57
2017-06-14T22:05:49.373Z,10.90
2017-06-14T22:08:16.926Z,10.63
2017-06-14T22:10:44.517Z,10.03
2017-06-14T22:13:12.148Z,9.47
2017-06-14T22:15:39.675Z,9.83
2017-06-14T22:18:07.228Z,9.63
2017-06-14T22:20:35.510Z,9.10
2017-06-14T22:23:03.118Z,9.40
2017-06-14T22:25:30.666Z,7.93
2017-06-14T22:27:58.330Z,8.40
2017-06-14T22:30:25.890Z,8.57
2017-06-14T22:32:53.539Z,25.27
2017-06-14T22:35:21.099Z,8.50
2017-06-14T22:37:48.762Z,9.30
2017-06-14T22:40:16.326Z,9.20
2017-06-14T22:42:43.885Z,9.37
2017-06-14T22:45:11.445Z,9.60
2017-06-14T22:47:39.014Z,9.97
2017-06-14T22:50:06.764Z,10.23
2017-06-14T22:52:34.338Z,10.47
2017-06-14T22:55:01.889Z,10.17
2017-06-14T22:57:29.647Z,10.07
2017-06-14T22:59:57.308Z,11.03
2017-06-14T23:02:24.872Z,10.37
2017-06-14T23:04:52.433Z,15.90
2017-06-14T23:07:19.968Z,11.53
2017-06-14T23:09:47.767Z,11.80
2017-06-14T23:12:15.323Z,11.17
2017-06-14T23:14:42.878Z,11.00
2017-06-14T23:17:10.414Z,12.00
2017-06-14T23:19:37.979Z,12.40
2017-06-14T23:22:05.558Z,11.50
2017-06-14T23:24:33.214Z,11.40
2017-06-14T23:27:00.758Z,10.53
2017-06-14T23:29:28.338Z,12.53
2017-06-14T23:31:56.009Z,11.47
2017-06-14T23:34:23.656Z,11.07
2017-06-14T23:36:51.221Z,10.83
2017-06-14T23:39:18.775Z,10.57
2017-06-14T23:41:46.329Z,11.70
2017-06-14T23:44:13.863Z,10.50
2017-06-14T23:46:42.153Z,11.40
2017-06-14T23:49:09.747Z,10.13
2017-06-14T23:51:37.395Z,10.10
2017-06-14T23:54:04.961Z,11.00
2017-06-14T23:56:32.622Z,9.43
2017-06-14T23:59:00.154Z,11.50
